createdAt,value
2022-11-06T00:00:30.216Z,13.55
2022-11-06T00:03:01.459Z,13.13
2022-11-06T00:05:48.437Z,10.77
2022-11-06T00:08:16.707Z,12.60
2022-11-06T00:10:44.141Z,11.82
2022-11-06T00:13:11.202Z,18.27
2022-11-06T00:15:38.444Z,16.27
2022-11-06T00:18:05.479Z,13.38
2022-11-06T00:20:32.767Z,12.15
2022-11-06T00:23:00.860Z,14.90
2022-11-06T00:25:28.222Z,18.75
2022-11-06T00:27:55.306Z,15.45
2022-11-06T00:30:22.593Z,12.95
2022-11-06T00:32:49.746Z,13.65
2022-11-06T00:35:17.132Z,13.57
2022-11-06T00:37:44.262Z,14.85
2022-11-06T00:40:12.421Z,10.60
2022-11-06T00:42:39.355Z,14.38
2022-11-06T00:45:07.266Z,23.05
2022-11-06T00:47:34.342Z,15.63
2022-11-06T00:50:06.593Z,13.00
2022-11-06T00:52:33.627Z,12.27
2022-11-06T00:55:00.922Z,13.13
2022-11-06T00:57:28.004Z,17.05
2022-11-06T00:59:55.367Z,12.68
2022-11-06T01:02:22.459Z,14.02
2022-11-06T01:04:49.858Z,18.75
2022-11-06T01:07:19.283Z,15.13
2022-11-06T01:09:46.994Z,12.80
2022-11-06T01:12:14.543Z,13.77
2022-11-06T01:14:43.754Z,12.38
2022-11-06T01:17:11.290Z,16.98
2022-11-06T01:19:38.789Z,11.90
2022-11-06T01:22:05.889Z,13.80
2022-11-06T01:24:33.446Z,14.15
2022-11-06T01:29:48.156Z,10.52
2022-11-06T01:32:15.234Z,13.85
2022-11-06T01:34:42.603Z,10.13
2022-11-06T01:37:14.287Z,12.60
2022-11-06T01:39:42.758Z,12.32
2022-11-06T01:42:12.566Z,13.02
2022-11-06T01:44:42.949Z,11.00
2022-11-06T01:47:36.682Z,13.18
2022-11-06T01:50:11.314Z,12.10
2022-11-06T01:52:39.135Z,13.88
2022-11-06T01:55:17.557Z,13.70
2022-11-06T01:57:45.154Z,13.40
2022-11-06T02:00:13.203Z,12.05
2022-11-06T02:02:43.227Z,13.43
2022-11-06T02:05:11.309Z,12.40
2022-11-06T02:07:40.289Z,12.15
2022-11-06T02:10:08.101Z,16.38
2022-11-06T02:12:57.881Z,9.45
2022-11-06T02:15:39.217Z,11.35
2022-11-06T02:18:38.543Z,12.18
2022-11-06T02:21:41.003Z,14.20
2022-11-06T02:24:40.271Z,11.43
2022-11-06T02:27:12.644Z,10.50
2022-11-06T02:29:48.835Z,14.15
2022-11-06T02:32:27.416Z,13.77
2022-11-06T02:34:56.241Z,12.63
2022-11-06T02:37:30.489Z,13.10
2022-11-06T02:40:00.551Z,14.32
2022-11-06T02:42:30.672Z,10.05
2022-11-06T02:44:59.572Z,12.20
2022-11-06T02:47:32.451Z,13.82
2022-11-06T02:50:24.559Z,14.23
2022-11-06T02:53:00.163Z,13.20
2022-11-06T02:55:37.419Z,9.15
2022-11-06T02:58:12.895Z,19.42
2022-11-06T03:00:45.267Z,13.07
2022-11-06T03:03:37.257Z,13.75
2022-11-06T03:06:10.867Z,14.88
2022-11-06T03:08:50.206Z,13.07
2022-11-06T03:11:30.244Z,13.45
2022-11-06T03:14:00.502Z,14.32
2022-11-06T03:16:49.830Z,13.57
2022-11-06T03:19:23.046Z,18.05
2022-11-06T03:22:11.906Z,16.38
2022-11-06T03:24:45.200Z,18.05
2022-11-06T03:27:29.054Z,20.27
2022-11-06T03:30:16.274Z,14.75
2022-11-06T03:32:43.515Z,51.40
2022-11-06T03:35:26.431Z,19.80
2022-11-06T03:38:09.561Z,17.77
2022-11-06T03:40:50.220Z,19.20
2022-11-06T03:43:23.078Z,19.73
2022-11-06T03:45:53.222Z,16.73
2022-11-06T03:48:26.996Z,19.63
2022-11-06T03:51:20.797Z,20.58
2022-11-06T03:53:59.338Z,16.92
2022-11-06T03:56:33.909Z,19.92
2022-11-06T03:59:04.761Z,16.55
2022-11-06T04:01:37.563Z,20.13
2022-11-06T04:04:16.040Z,18.20
2022-11-06T04:06:49.770Z,20.00
2022-11-06T04:09:39.213Z,17.77
2022-11-06T04:12:32.101Z,18.40
2022-11-06T04:15:00.150Z,17.45
2022-11-06T04:17:30.062Z,19.60
2022-11-06T04:20:00.684Z,21.13
2022-11-06T04:22:53.661Z,21.63
2022-11-06T04:25:42.080Z,22.08
2022-11-06T04:28:43.771Z,18.40
2022-11-06T04:31:22.769Z,20.02
2022-11-06T04:34:02.684Z,25.05
2022-11-06T04:36:47.658Z,19.33
2022-11-06T04:39:22.889Z,16.50
2022-11-06T04:42:05.392Z,15.80
2022-11-06T04:44:38.623Z,21.00
2022-11-06T04:47:09.377Z,21.98
2022-11-06T04:49:41.903Z,20.55
2022-11-06T04:52:13.461Z,20.27
2022-11-06T04:54:41.168Z,22.60
2022-11-06T04:57:08.219Z,23.70
2022-11-06T04:59:37.396Z,24.50
2022-11-06T05:02:05.501Z,22.20
2022-11-06T05:04:33.877Z,27.13
2022-11-06T05:07:00.933Z,29.52
2022-11-06T05:09:28.375Z,25.45
2022-11-06T05:11:55.337Z,23.10
2022-11-06T05:14:22.725Z,24.65
2022-11-06T05:16:49.631Z,27.83
2022-11-06T05:19:16.988Z,27.27
2022-11-06T05:22:02.261Z,27.27
2022-11-06T05:24:31.808Z,29.35
2022-11-06T05:26:59.801Z,27.63
2022-11-06T05:29:27.732Z,32.22
2022-11-06T05:31:54.875Z,27.65
2022-11-06T05:34:22.173Z,28.13
2022-11-06T05:36:52.081Z,32.45
2022-11-06T05:39:19.353Z,34.42
2022-11-06T05:41:46.296Z,33.22
2022-11-06T05:44:13.730Z,32.78
2022-11-06T05:46:49.556Z,30.65
2022-11-06T05:49:18.797Z,35.17
2022-11-06T05:51:46.662Z,35.13
2022-11-06T05:54:14.664Z,29.05
2022-11-06T05:56:41.788Z,33.58
2022-11-06T05:59:09.179Z,32.50
2022-11-06T06:01:36.178Z,29.52
2022-11-06T06:04:03.819Z,34.75
2022-11-06T06:06:31.022Z,33.25
2022-11-06T06:08:58.319Z,34.97
2022-11-06T06:11:25.271Z,32.92
2022-11-06T06:13:55.349Z,31.02
2022-11-06T06:16:22.305Z,32.97
2022-11-06T06:18:51.108Z,31.80
2022-11-06T06:21:18.365Z,34.25
2022-11-06T06:23:45.724Z,32.80
2022-11-06T06:26:12.722Z,31.65
2022-11-06T06:28:40.076Z,34.33
2022-11-06T06:31:08.046Z,36.17
2022-11-06T06:33:35.710Z,38.83
2022-11-06T06:36:04.566Z,33.88
2022-11-06T06:38:31.865Z,26.50
2022-11-06T06:41:08.947Z,29.35
2022-11-06T06:43:36.776Z,24.40
2022-11-06T06:46:06.598Z,22.13
2022-11-06T06:48:34.417Z,22.75
2022-11-06T06:51:03.264Z,26.48
2022-11-06T06:53:31.032Z,21.95
2022-11-06T06:55:59.653Z,21.50
2022-11-06T06:58:27.738Z,18.95
2022-11-06T07:00:58.818Z,17.55
2022-11-06T07:03:26.205Z,19.83
2022-11-06T07:05:55.508Z,24.02
2022-11-06T07:08:25.130Z,25.33
2022-11-06T07:10:52.428Z,19.15
2022-11-06T07:13:19.787Z,16.98
2022-11-06T07:15:46.784Z,17.30
2022-11-06T07:18:14.628Z,18.27
2022-11-06T07:20:43.973Z,20.52
2022-11-06T07:23:11.436Z,18.33
2022-11-06T07:25:38.476Z,19.10
2022-11-06T07:28:07.625Z,19.88
2022-11-06T07:30:36.381Z,21.30
2022-11-06T07:33:05.177Z,20.08
2022-11-06T07:35:33.765Z,18.55
2022-11-06T07:38:06.046Z,17.73
2022-11-06T07:40:36.809Z,16.05
2022-11-06T07:43:08.973Z,15.48
2022-11-06T07:45:37.007Z,16.42
2022-11-06T07:48:10.107Z,15.88
2022-11-06T07:50:37.164Z,17.27
2022-11-06T07:53:04.620Z,16.50
2022-11-06T07:55:31.623Z,16.70
2022-11-06T07:57:59.652Z,14.23
2022-11-06T08:00:26.712Z,15.68
2022-11-06T08:02:56.525Z,16.90
2022-11-06T08:05:23.614Z,16.02
2022-11-06T08:07:56.464Z,15.25
2022-11-06T08:10:23.517Z,16.70
2022-11-06T08:12:50.825Z,17.95
2022-11-06T08:15:17.826Z,15.70
2022-11-06T08:17:45.142Z,16.25
2022-11-06T08:20:12.145Z,17.20
2022-11-06T08:22:39.537Z,20.55
2022-11-06T08:25:07.284Z,18.42
2022-11-06T08:27:34.969Z,16.50
2022-11-06T08:30:02.548Z,19.10
2022-11-06T08:32:32.252Z,19.20
2022-11-06T08:34:59.217Z,21.80
2022-11-06T08:37:26.842Z,24.55
2022-11-06T08:39:53.831Z,19.05
2022-11-06T08:42:21.256Z,19.85
2022-11-06T08:44:48.304Z,18.58
2022-11-06T08:47:15.607Z,23.42
2022-11-06T08:49:42.711Z,20.25
2022-11-06T08:52:10.918Z,20.92
2022-11-06T08:54:38.468Z,20.23
2022-11-06T08:57:08.021Z,21.67
2022-11-06T08:59:38.164Z,23.77
2022-11-06T09:02:05.577Z,21.92
2022-11-06T09:04:35.086Z,23.98
2022-11-06T09:07:04.702Z,21.17
2022-11-06T09:09:34.448Z,24.23
2022-11-06T09:12:02.470Z,19.85
2022-11-06T09:14:31.267Z,18.42
2022-11-06T09:16:58.632Z,20.65
2022-11-06T09:19:25.738Z,17.08
2022-11-06T09:21:54.847Z,17.30
2022-11-06T09:24:43.617Z,20.60
2022-11-06T09:27:12.429Z,18.38
2022-11-06T09:29:44.194Z,15.85
2022-11-06T09:32:11.750Z,12.05
2022-11-06T09:34:39.012Z,11.43
2022-11-06T09:37:06.519Z,15.65
2022-11-06T09:39:33.464Z,12.63
2022-11-06T09:42:28.861Z,10.15
2022-11-06T09:45:17.281Z,11.55
2022-11-06T09:47:50.191Z,11.95
2022-11-06T09:50:23.954Z,15.80
2022-11-06T09:53:07.692Z,15.27
2022-11-06T09:55:40.269Z,12.88
2022-11-06T09:58:33.667Z,17.23
2022-11-06T10:01:19.538Z,15.57
2022-11-06T10:04:04.335Z,16.90
2022-11-06T10:06:33.063Z,19.67
2022-11-06T10:09:04.136Z,15.95
2022-11-06T10:11:34.223Z,17.45
2022-11-06T10:14:05.824Z,15.30
2022-11-06T10:16:42.873Z,16.00
2022-11-06T10:19:31.413Z,14.25
2022-11-06T10:22:14.909Z,19.25
2022-11-06T10:24:47.931Z,16.33
2022-11-06T10:27:17.030Z,14.68
2022-11-06T10:30:03.371Z,17.85
2022-11-06T10:32:53.132Z,12.10
2022-11-06T10:35:45.596Z,13.85
2022-11-06T10:38:16.162Z,14.07
2022-11-06T10:40:46.623Z,17.52
2022-11-06T10:43:25.251Z,15.40
2022-11-06T10:46:02.081Z,12.43
2022-11-06T10:48:41.622Z,14.05
2022-11-06T10:51:38.699Z,12.55
2022-11-06T10:54:33.446Z,11.48
2022-11-06T10:57:40.038Z,10.65
2022-11-06T11:00:13.413Z,13.10
2022-11-06T11:02:46.279Z,13.32
2022-11-06T11:05:16.427Z,14.45
2022-11-06T11:07:46.839Z,13.65
2022-11-06T11:10:25.982Z,15.35
2022-11-06T11:12:56.294Z,14.90
2022-11-06T11:15:26.337Z,11.63
2022-11-06T11:18:13.173Z,12.38
2022-11-06T11:20:47.347Z,10.23
2022-11-06T11:23:18.836Z,14.52
2022-11-06T11:25:58.749Z,11.95
2022-11-06T11:28:33.266Z,8.73
2022-11-06T11:31:11.282Z,10.15
2022-11-06T11:33:51.761Z,10.38
2022-11-06T11:36:19.599Z,12.68
2022-11-06T11:38:48.647Z,10.45
2022-11-06T11:41:19.670Z,10.20
2022-11-06T11:44:14.252Z,9.60
2022-11-06T11:46:50.278Z,11.48
2022-11-06T11:49:32.919Z,9.85
2022-11-06T11:52:12.015Z,10.50
2022-11-06T11:55:49.999Z,10.00
2022-11-06T11:58:28.632Z,11.63
2022-11-06T12:01:00.472Z,14.05
2022-11-06T12:03:34.786Z,13.77
2022-11-06T12:06:09.796Z,9.40
2022-11-06T12:08:41.954Z,13.33
2022-11-06T12:11:16.217Z,11.77
2022-11-06T12:13:43.875Z,10.82
2022-11-06T12:16:17.224Z,10.05
2022-11-06T12:18:50.755Z,7.60
2022-11-06T12:21:27.859Z,16.98
2022-11-06T12:24:04.080Z,13.55
2022-11-06T12:26:42.080Z,11.23
2022-11-06T12:29:33.799Z,10.55
2022-11-06T12:32:38.348Z,19.90
2022-11-06T12:35:24.754Z,22.63
2022-11-06T12:37:55.701Z,13.43
2022-11-06T12:40:33.071Z,7.85
2022-11-06T12:43:03.270Z,8.68
2022-11-06T12:45:50.861Z,8.75
2022-11-06T12:48:55.842Z,9.13
2022-11-06T12:51:42.233Z,11.73
2022-11-06T12:54:34.088Z,9.13
2022-11-06T12:57:02.854Z,6.50
2022-11-06T12:59:46.380Z,9.13
2022-11-06T13:02:23.972Z,10.23
2022-11-06T13:05:04.141Z,9.18
2022-11-06T13:07:43.160Z,10.00
2022-11-06T13:10:49.198Z,7.18
2022-11-06T13:13:25.467Z,10.82
2022-11-06T13:16:16.795Z,7.22
2022-11-06T13:18:53.666Z,10.23
2022-11-06T13:21:26.972Z,8.93
2022-11-06T13:24:03.769Z,5.97
2022-11-06T13:26:32.001Z,6.45
2022-11-06T13:29:05.387Z,10.27
2022-11-06T13:31:42.020Z,5.05
2022-11-06T13:34:22.014Z,6.82
2022-11-06T13:36:52.138Z,11.13
2022-11-06T13:39:27.096Z,6.90
2022-11-06T13:41:56.938Z,9.93
2022-11-06T13:44:26.398Z,5.13
2022-11-06T13:47:10.703Z,7.30
2022-11-06T13:49:47.937Z,7.47
2022-11-06T13:52:21.997Z,9.77
2022-11-06T13:55:13.874Z,5.03
2022-11-06T13:58:17.802Z,6.70
2022-11-06T14:01:11.336Z,4.82
2022-11-06T14:03:43.895Z,6.55
2022-11-06T14:06:21.070Z,9.10
2022-11-06T14:08:55.553Z,8.73
2022-11-06T14:11:35.518Z,5.70
2022-11-06T14:14:15.136Z,7.78
2022-11-06T14:16:45.207Z,8.60
2022-11-06T14:19:24.141Z,5.10
2022-11-06T14:21:55.175Z,11.85
2022-11-06T14:24:33.003Z,11.38
2022-11-06T14:27:30.292Z,8.32
2022-11-06T14:30:20.378Z,5.97
2022-11-06T14:32:48.882Z,5.40
2022-11-06T14:35:29.170Z,6.40
2022-11-06T14:38:20.281Z,5.63
2022-11-06T14:40:48.841Z,9.15
2022-11-06T14:43:29.899Z,8.27
2022-11-06T14:46:05.498Z,7.60
2022-11-06T14:48:45.755Z,8.02
2022-11-06T14:51:16.235Z,9.18
2022-11-06T14:53:51.060Z,6.72
2022-11-06T14:56:27.375Z,7.35
2022-11-06T14:59:06.091Z,6.57
2022-11-06T15:01:36.516Z,5.50
2022-11-06T15:04:20.458Z,6.22
2022-11-06T15:06:51.466Z,6.63
2022-11-06T15:09:25.790Z,5.07
2022-11-06T15:11:55.803Z,4.63
2022-11-06T15:14:23.575Z,7.57
2022-11-06T15:17:07.982Z,11.40
2022-11-06T15:19:46.569Z,10.45
2022-11-06T15:22:32.770Z,11.32
2022-11-06T15:25:21.934Z,8.95
2022-11-06T15:28:06.853Z,10.70
2022-11-06T15:31:06.313Z,6.85
2022-11-06T15:34:02.534Z,5.95
2022-11-06T15:39:41.919Z,8.38
2022-11-06T15:42:19.294Z,6.75
2022-11-06T15:44:49.725Z,9.27
2022-11-06T15:47:27.730Z,9.90
2022-11-06T15:50:14.960Z,5.25
2022-11-06T15:52:45.202Z,7.22
2022-11-06T15:55:23.291Z,9.43
2022-11-06T15:57:55.199Z,10.80
2022-11-06T16:00:25.814Z,12.82
2022-11-06T16:03:02.540Z,11.13
2022-11-06T16:05:33.793Z,9.77
2022-11-06T16:08:03.100Z,7.70
2022-11-06T16:10:33.235Z,8.15
2022-11-06T16:13:04.493Z,6.95
2022-11-06T16:15:45.982Z,8.95
2022-11-06T16:18:23.764Z,8.48
2022-11-06T16:21:19.405Z,7.45
2022-11-06T16:23:52.451Z,8.35
2022-11-06T16:26:32.918Z,7.13
2022-11-06T16:29:09.352Z,13.13
2022-11-06T16:31:40.832Z,11.75
2022-11-06T16:34:36.010Z,11.02
2022-11-06T16:37:30.059Z,9.73
2022-11-06T16:39:59.924Z,11.80
2022-11-06T16:42:35.570Z,11.40
2022-11-06T16:47:37.580Z,11.98
2022-11-06T16:50:44.376Z,12.07
2022-11-06T16:53:16.872Z,15.52
2022-11-06T16:55:53.768Z,18.45
2022-11-06T16:58:23.393Z,28.35
2022-11-06T17:01:07.300Z,28.42
2022-11-06T17:04:03.224Z,25.25
2022-11-06T17:06:36.954Z,20.92
2022-11-06T17:09:24.973Z,29.20
2022-11-06T17:11:55.582Z,26.80
2022-11-06T17:14:26.743Z,25.17
2022-11-06T17:16:58.302Z,20.88
2022-11-06T17:19:28.327Z,22.42
2022-11-06T17:21:58.793Z,18.67
2022-11-06T17:24:42.670Z,21.83
2022-11-06T17:27:13.404Z,23.38
2022-11-06T17:29:42.013Z,25.02
2022-11-06T17:32:11.455Z,27.77
2022-11-06T17:34:39.788Z,33.00
2022-11-06T17:37:11.738Z,31.35
2022-11-06T17:39:41.400Z,34.08
2022-11-06T17:42:11.898Z,34.20
2022-11-06T17:44:40.318Z,30.73
2022-11-06T17:47:10.818Z,29.75
2022-11-06T17:49:40.189Z,23.88
2022-11-06T17:52:09.856Z,28.02
2022-11-06T17:54:40.024Z,27.02
2022-11-06T17:57:08.901Z,27.42
2022-11-06T17:59:41.584Z,29.23
2022-11-06T18:02:30.058Z,26.27
2022-11-06T18:05:10.554Z,32.22
2022-11-06T18:07:41.296Z,36.45
2022-11-06T18:10:12.676Z,30.77
2022-11-06T18:12:41.261Z,31.13
2022-11-06T18:15:10.407Z,33.20
2022-11-06T18:17:45.201Z,35.25
2022-11-06T18:20:17.436Z,35.25
2022-11-06T18:22:46.075Z,32.38
2022-11-06T18:25:15.967Z,32.70
2022-11-06T18:27:44.635Z,28.35
2022-11-06T18:30:14.760Z,31.92
2022-11-06T18:32:44.598Z,32.25
2022-11-06T18:35:15.228Z,32.33
2022-11-06T18:37:45.231Z,26.58
2022-11-06T18:40:14.570Z,24.15
2022-11-06T18:42:44.052Z,21.75
2022-11-06T18:45:13.051Z,24.52
2022-11-06T18:47:42.640Z,20.65
2022-11-06T18:50:13.786Z,26.02
2022-11-06T18:52:57.506Z,25.70
2022-11-06T18:55:29.658Z,23.27
2022-11-06T18:57:59.853Z,48.20
2022-11-06T19:00:28.773Z,46.10
2022-11-06T19:02:58.863Z,33.92
2022-11-06T19:05:29.333Z,27.65
2022-11-06T19:08:00.517Z,26.25
2022-11-06T19:10:30.199Z,23.73
2022-11-06T19:13:03.350Z,23.70
2022-11-06T19:15:33.243Z,24.40
2022-11-06T19:18:03.429Z,21.02
2022-11-06T19:20:32.490Z,28.33
2022-11-06T19:23:02.821Z,30.88
2022-11-06T19:25:31.145Z,23.27
2022-11-06T19:28:05.208Z,25.20
2022-11-06T19:30:34.514Z,28.40
2022-11-06T19:33:04.751Z,24.88
2022-11-06T19:35:33.673Z,33.38
2022-11-06T19:38:02.858Z,60.88
2022-11-06T19:40:31.717Z,48.35
2022-11-06T19:43:01.097Z,35.13
2022-11-06T19:45:30.326Z,43.25
2022-11-06T19:48:00.328Z,50.42
2022-11-06T19:50:58.016Z,49.33
2022-11-06T19:53:22.241Z,32.75
2022-11-06T19:55:52.560Z,23.77
2022-11-06T19:58:25.747Z,10.73
2022-11-06T20:00:54.321Z,16.77
2022-11-06T20:03:24.609Z,23.02
2022-11-06T20:05:57.291Z,18.67
2022-11-06T20:08:32.005Z,18.27
2022-11-06T20:11:06.115Z,17.90
2022-11-06T20:13:37.210Z,20.63
2022-11-06T20:16:12.356Z,14.75
2022-11-06T20:18:40.914Z,31.70
2022-11-06T20:21:11.885Z,37.38
2022-11-06T20:23:42.771Z,47.08
2022-11-06T20:26:11.906Z,40.13
2022-11-06T20:28:41.161Z,48.50
2022-11-06T20:31:13.203Z,29.60
2022-11-06T20:33:43.040Z,38.95
2022-11-06T20:36:23.926Z,32.05
2022-11-06T20:39:01.154Z,21.80
2022-11-06T20:41:30.459Z,18.30
2022-11-06T20:43:59.997Z,32.58
2022-11-06T20:46:30.669Z,17.98
2022-11-06T20:49:00.118Z,23.25
2022-11-06T20:51:32.120Z,19.90
2022-11-06T20:54:06.002Z,16.73
2022-11-06T20:56:34.697Z,20.08
2022-11-06T20:59:03.349Z,14.13
2022-11-06T21:01:32.002Z,16.70
2022-11-06T21:04:01.098Z,17.23
2022-11-06T21:06:30.966Z,14.57
2022-11-06T21:08:59.539Z,21.58
2022-11-06T21:11:28.768Z,20.80
2022-11-06T21:13:57.216Z,22.77
2022-11-06T21:16:28.951Z,21.90
2022-11-06T21:18:59.579Z,22.15
2022-11-06T21:21:30.031Z,21.55
2022-11-06T21:23:58.663Z,20.65
2022-11-06T21:26:32.887Z,16.65
2022-11-06T21:29:03.025Z,14.85
2022-11-06T21:31:34.405Z,17.80
2022-11-06T21:34:03.742Z,16.45
2022-11-06T21:36:37.041Z,15.90
2022-11-06T21:39:08.271Z,15.55
2022-11-06T21:41:38.768Z,16.48
2022-11-06T21:44:08.358Z,12.98
2022-11-06T21:46:42.713Z,13.50
2022-11-06T21:49:13.634Z,12.93
2022-11-06T21:51:41.286Z,18.20
2022-11-06T21:54:30.930Z,14.70
2022-11-06T21:56:58.520Z,13.27
2022-11-06T21:59:27.974Z,19.90
2022-11-06T22:01:57.739Z,20.90
2022-11-06T22:04:25.340Z,17.35
2022-11-06T22:06:52.777Z,19.92
2022-11-06T22:09:24.763Z,16.50
2022-11-06T22:11:52.813Z,13.70
2022-11-06T22:14:20.273Z,22.38
2022-11-06T22:16:47.868Z,14.55
2022-11-06T22:19:17.673Z,11.93
2022-11-06T22:21:45.187Z,15.30
2022-11-06T22:24:13.558Z,13.88
2022-11-06T22:26:41.007Z,19.52
2022-11-06T22:29:11.529Z,18.08
2022-11-06T22:31:38.607Z,21.15
2022-11-06T22:34:13.124Z,18.17
2022-11-06T22:36:41.493Z,16.98
2022-11-06T22:39:12.642Z,28.52
2022-11-06T22:41:40.135Z,18.13
2022-11-06T22:44:07.716Z,15.90
2022-11-06T22:46:35.363Z,19.75
2022-11-06T22:49:04.263Z,15.75
2022-11-06T22:51:33.054Z,13.13
2022-11-06T22:54:03.593Z,17.23
2022-11-06T22:56:31.519Z,12.20
2022-11-06T22:59:03.000Z,16.75
2022-11-06T23:01:40.322Z,19.30
2022-11-06T23:04:15.185Z,16.70
2022-11-06T23:06:45.782Z,18.45
2022-11-06T23:09:13.950Z,14.95
2022-11-06T23:11:46.328Z,18.73
2022-11-06T23:14:13.372Z,17.17
2022-11-06T23:17:00.580Z,16.50
2022-11-06T23:19:30.200Z,18.48
2022-11-06T23:22:16.163Z,18.67
2022-11-06T23:24:43.445Z,15.95
2022-11-06T23:27:11.731Z,17.67
2022-11-06T23:29:39.472Z,19.15
2022-11-06T23:32:10.638Z,16.30
2022-11-06T23:34:37.657Z,15.25
2022-11-06T23:37:05.465Z,11.82
2022-11-06T23:39:32.721Z,15.32
2022-11-06T23:42:02.126Z,21.40
2022-11-06T23:44:47.808Z,15.02
2022-11-06T23:47:15.131Z,17.67
2022-11-06T23:49:42.079Z,15.73
2022-11-06T23:52:09.455Z,15.82
2022-11-06T23:54:38.835Z,16.42
2022-11-06T23:57:08.059Z,15.85
2022-11-06T23:59:35.704Z,23.83
